Time;durP1;ratioP1;P1;durP2;ratioP2;P2;SDS_P1;SDS_P2;PMS_P1;PMS_P2;Temp;Humidity;BMP_temperature;BMP_pressure;BME280_temperature;BME280_humidity;BME280_pressure;Samples;Min_cycle;Max_cycle;Signal;HPM_P1;HPM_P2
2021/08/28 00:01:07;;;;;;;;;;;;;;;15.11;74.39;100276.72;5016754;28;19944;-61
2021/08/28 00:03:54;;;;;;;;;;;;;;;15.09;74.31;100281.06;5017637;28;19928;-62
2021/08/28 00:06:41;;;;;;;;;;;;;;;15.09;74.45;100265.41;5017355;28;20419;-61
2021/08/28 00:09:31;;;;;;;;;;;;;;;15.08;74.33;100266.25;5017516;28;19971;-61
2021/08/28 00:12:21;;;;;;;;;;;;;;;15.08;74.40;100271.50;5016039;28;19932;-61
2021/08/28 00:15:07;;;;;;;;;;;;;;;15.06;74.48;100262.78;5016058;28;19932;-61
2021/08/28 00:17:56;;;;;;;;;;;;;;;15.07;74.36;100267.13;5016118;28;19928;-61
2021/08/28 00:20:40;;;;;;;;;;;;;;;15.07;74.50;100264.53;5016222;28;19967;-61
2021/08/28 00:23:24;;;;;;;;;;;;;;;15.06;74.37;100265.38;5016896;28;20447;-61
2021/08/28 00:26:08;;;;;;;;;;;;;;;15.05;74.52;100259.31;5016596;28;20384;-61
2021/08/28 00:28:52;;;;;;;;;;;;;;;15.04;74.53;100265.41;5017063;28;19967;-63
2021/08/28 00:31:36;;;;;;;;;;;;;;;15.04;74.53;100269.72;5016343;28;19929;-62
2021/08/28 00:34:19;;;;;;;;;;;;;;;15.05;74.52;100267.16;5016692;28;19928;-62
2021/08/28 00:37:03;;;;;;;;;;;;;;;15.06;74.51;100273.22;5016669;28;19928;-62
2021/08/28 00:39:47;;;;;;;;;;;;;;;15.05;74.46;100269.75;5016375;28;19976;-61
2021/08/28 00:42:51;;;;;;;;;;;;;;;15.06;74.58;100265.38;5016583;28;19972;-62
2021/08/28 00:45:36;;;;;;;;;;;;;;;15.05;74.65;100272.38;5016631;28;20347;-61
2021/08/28 00:48:22;;;;;;;;;;;;;;;15.06;74.62;100274.09;5016937;28;19928;-62
2021/08/28 00:51:07;;;;;;;;;;;;;;;15.07;74.65;100269.75;5029370;28;19933;-61
2021/08/28 00:53:54;;;;;;;;;;;;;;;15.06;74.74;100273.22;5016184;28;20335;-61
2021/08/28 00:56:42;;;;;;;;;;;;;;;15.06;74.71;100268.00;5016809;28;20312;-63
2021/08/28 00:59:32;;;;;;;;;;;;;;;15.07;74.61;100272.34;5015860;28;19953;-63
2021/08/28 01:02:19;;;;;;;;;;;;;;;15.05;74.70;100274.97;5015241;28;19928;-63
2021/08/28 01:05:17;;;;;;;;;;;;;;;15.06;74.73;100273.22;5015562;28;20059;-61
2021/08/28 01:08:13;;;;;;;;;;;;;;;15.06;74.65;100262.78;5015442;28;19928;-61
2021/08/28 01:11:04;;;;;;;;;;;;;;;15.06;74.63;100263.66;5014761;28;20385;-64
2021/08/28 01:13:56;;;;;;;;;;;;;;;15.06;74.73;100268.00;5015677;28;20357;-63
2021/08/28 01:16:45;;;;;;;;;;;;;;;15.06;74.88;100261.06;5029440;28;20373;-63
2021/08/28 01:19:40;;;;;;;;;;;;;;;15.06;74.64;100258.44;5015476;28;19968;-63
2021/08/28 01:22:25;;;;;;;;;;;;;;;15.05;74.86;100264.53;5014841;28;19928;-62
2021/08/28 01:25:12;;;;;;;;;;;;;;;15.06;74.73;100265.38;5015220;28;20395;-63
2021/08/28 01:28:03;;;;;;;;;;;;;;;15.07;74.92;100259.31;5016025;28;19991;-63
2021/08/28 01:30:51;;;;;;;;;;;;;;;15.07;74.73;100257.59;5014933;28;19943;-63
2021/08/28 01:33:41;;;;;;;;;;;;;;;15.06;75.00;100250.63;5014880;28;19980;-62
2021/08/28 01:36:25;;;;;;;;;;;;;;;15.08;74.90;100255.81;5014612;28;20297;-63
2021/08/28 01:39:15;;;;;;;;;;;;;;;15.08;74.91;100258.44;5014913;28;20341;-63
2021/08/28 01:42:03;;;;;;;;;;;;;;;15.08;74.98;100255.81;5014832;28;20008;-63
2021/08/28 01:44:48;;;;;;;;;;;;;;;15.06;75.00;100258.44;5014922;28;20376;-63
2021/08/28 01:47:32;;;;;;;;;;;;;;;15.07;74.84;100257.59;5015094;28;19932;-63
2021/08/28 01:50:18;;;;;;;;;;;;;;;15.06;74.87;100255.84;5015463;28;19928;-61
2021/08/28 01:53:02;;;;;;;;;;;;;;;15.07;74.85;100265.41;5015220;28;20423;-61
2021/08/28 01:55:46;;;;;;;;;;;;;;;15.06;75.04;100268.88;5015657;28;20012;-62
2021/08/28 01:58:30;;;;;;;;;;;;;;;15.07;75.30;100261.91;5014819;28;19975;-61
2021/08/28 02:01:16;;;;;;;;;;;;;;;15.05;74.95;100261.94;5014236;28;20387;-62
2021/08/28 02:04:03;;;;;;;;;;;;;;;15.06;75.10;100268.88;5014476;28;19929;-61
2021/08/28 02:06:52;;;;;;;;;;;;;;;15.05;74.93;100271.47;5015137;28;20060;-61
2021/08/28 02:09:42;;;;;;;;;;;;;;;15.05;75.01;100267.16;5028331;28;20029;-61
2021/08/28 02:12:32;;;;;;;;;;;;;;;15.04;75.00;100272.34;5014006;28;20020;-61
2021/08/28 02:15:28;;;;;;;;;;;;;;;15.04;75.11;100275.84;5014128;28;19929;-61
2021/08/28 02:18:16;;;;;;;;;;;;;;;15.04;75.09;100274.97;5014954;28;19928;-61
2021/08/28 02:21:04;;;;;;;;;;;;;;;15.06;75.11;100281.06;5015111;28;19943;-61
2021/08/28 02:23:53;;;;;;;;;;;;;;;15.05;75.10;100279.31;5014369;28;19928;-62
2021/08/28 02:26:41;;;;;;;;;;;;;;;15.06;74.97;100281.94;5014062;28;19928;-62
2021/08/28 02:29:34;;;;;;;;;;;;;;;15.05;75.21;100282.81;5014056;28;19976;-61
2021/08/28 02:32:19;;;;;;;;;;;;;;;15.05;75.01;100277.59;5013530;28;19976;-62
2021/08/28 02:35:03;;;;;;;;;;;;;;;15.06;75.21;100275.81;5014274;28;19928;-61
2021/08/28 02:37:48;;;;;;;;;;;;;;;15.05;75.24;100274.97;5014176;28;19944;-61
2021/08/28 02:40:33;;;;;;;;;;;;;;;15.05;75.35;100268.88;5014709;28;20419;-61
2021/08/28 02:43:17;;;;;;;;;;;;;;;15.03;75.10;100278.44;5013617;28;19928;-62
2021/08/28 02:46:02;;;;;;;;;;;;;;;15.05;75.24;100272.38;5014031;28;19928;-61
2021/08/28 02:48:46;;;;;;;;;;;;;;;15.04;75.20;100273.22;5013612;28;19928;-61
2021/08/28 02:51:33;;;;;;;;;;;;;;;15.04;75.31;100272.34;5014367;28;19967;-61
2021/08/28 02:54:20;;;;;;;;;;;;;;;15.04;75.24;100267.13;5013694;28;19928;-62
2021/08/28 02:57:05;;;;;;;;;;;;;;;15.04;75.32;100268.00;5013570;28;20345;-61
2021/08/28 02:59:54;;;;;;;;;;;;;;;15.04;75.10;100270.63;5014709;28;20012;-61
2021/08/28 03:02:42;;;;;;;;;;;;;;;15.05;75.27;100274.09;5012800;28;20407;-62
2021/08/28 03:05:26;;;;;;;;;;;;;;;15.02;75.35;100264.53;5013839;28;19929;-62
2021/08/28 03:08:14;;;;;;;;;;;;;;;15.02;75.22;100267.13;5014131;28;19967;-61
2021/08/28 03:11:07;;;;;;;;;;;;;;;15.03;75.40;100262.78;5012714;28;19971;-61
2021/08/28 03:13:52;;;;;;;;;;;;;;;15.05;75.33;100256.69;5013414;28;19976;-61
2021/08/28 03:16:39;;;;;;;;;;;;;;;15.04;75.37;100254.97;5026980;28;19929;-61
2021/08/28 03:19:23;;;;;;;;;;;;;;;15.05;75.43;100263.66;5014064;28;19984;-62
2021/08/28 03:22:11;;;;;;;;;;;;;;;15.05;75.38;100261.94;5013982;28;20427;-62
2021/08/28 03:24:59;;;;;;;;;;;;;;;15.05;75.48;100259.31;5013530;28;19932;-61
2021/08/28 03:27:43;;;;;;;;;;;;;;;15.06;75.48;100260.16;5016429;28;20308;-62
2021/08/28 03:30:28;;;;;;;;;;;;;;;15.03;75.50;100250.59;5017220;28;20404;-61
2021/08/28 03:33:15;;;;;;;;;;;;;;;15.04;75.49;100252.34;5017485;28;19971;-62
2021/08/28 03:36:02;;;;;;;;;;;;;;;15.05;75.45;100253.22;5016782;28;19947;-62
2021/08/28 03:38:47;;;;;;;;;;;;;;;15.05;75.42;100248.00;5017927;28;19928;-62
2021/08/28 03:41:31;;;;;;;;;;;;;;;15.05;75.63;100242.75;5017833;28;19976;-62
2021/08/28 03:44:15;;;;;;;;;;;;;;;15.05;75.56;100240.16;5017881;28;19933;-62
2021/08/28 03:47:02;;;;;;;;;;;;;;;15.06;75.47;100240.19;5017925;28;19928;-62
2021/08/28 03:49:49;;;;;;;;;;;;;;;15.06;75.46;100240.19;5017858;28;19929;-61
2021/08/28 03:52:33;;;;;;;;;;;;;;;15.06;75.62;100234.06;5018010;28;20040;-61
2021/08/28 03:55:17;;;;;;;;;;;;;;;15.04;75.71;100228.88;5017639;28;20023;-61
2021/08/28 03:58:01;;;;;;;;;;;;;;;15.04;75.58;100231.47;5017639;28;20004;-61
2021/08/28 04:00:45;;;;;;;;;;;;;;;15.07;75.71;100246.25;5017765;28;19929;-61
2021/08/28 04:03:29;;;;;;;;;;;;;;;15.06;75.71;100242.78;5017680;28;20464;-63
2021/08/28 04:06:16;;;;;;;;;;;;;;;15.05;75.67;100242.75;5017254;28;19968;-63
2021/08/28 04:09:02;;;;;;;;;;;;;;;15.06;75.71;100245.41;5017043;28;20044;-61
2021/08/28 04:11:49;;;;;;;;;;;;;;;15.05;75.73;100245.38;5016830;28;20415;-61
2021/08/28 04:14:33;;;;;;;;;;;;;;;15.05;75.85;100241.03;5017637;28;20015;-62
2021/08/28 04:17:20;;;;;;;;;;;;;;;15.04;75.79;100239.31;5016629;28;19967;-61
2021/08/28 04:20:08;;;;;;;;;;;;;;;15.05;75.71;100241.03;5017125;28;19988;-62
2021/08/28 04:22:54;;;;;;;;;;;;;;;15.06;75.77;100241.91;5016124;28;20346;-62
2021/08/28 04:25:42;;;;;;;;;;;;;;;15.05;75.87;100234.94;5017147;28;20323;-62
2021/08/28 04:28:28;;;;;;;;;;;;;;;15.04;75.87;100238.41;5015805;28;19931;-61
2021/08/28 04:31:12;;;;;;;;;;;;;;;15.04;75.98;100238.41;5029877;28;19928;-62
2021/08/28 04:33:56;;;;;;;;;;;;;;;15.05;75.93;100240.16;5017306;28;19928;-61
2021/08/28 04:36:41;;;;;;;;;;;;;;;15.04;75.92;100230.59;5016364;28;19928;-61
2021/08/28 04:39:28;;;;;;;;;;;;;;;15.02;76.04;100229.75;5015269;28;19986;-61
2021/08/28 04:42:12;;;;;;;;;;;;;;;15.03;75.92;100231.44;5016101;28;19967;-62
2021/08/28 04:44:59;;;;;;;;;;;;;;;15.03;75.80;100236.66;5016684;28;19933;-61
2021/08/28 04:47:45;;;;;;;;;;;;;;;15.02;76.04;100233.22;5016633;28;19943;-62
2021/08/28 04:50:35;;;;;;;;;;;;;;;15.01;76.14;100231.47;5015746;28;19967;-61
2021/08/28 04:53:19;;;;;;;;;;;;;;;15.01;75.92;100231.47;5016585;28;20007;-64
2021/08/28 04:56:07;;;;;;;;;;;;;;;15.01;76.08;100223.63;5016858;28;19927;-61
2021/08/28 04:58:57;;;;;;;;;;;;;;;15.00;76.10;100221.88;5015388;28;19928;-61
2021/08/28 05:01:44;;;;;;;;;;;;;;;15.00;76.05;100229.72;5015404;28;19971;-63
2021/08/28 05:04:28;;;;;;;;;;;;;;;15.01;76.20;100230.59;5016333;28;19967;-63
2021/08/28 05:07:15;;;;;;;;;;;;;;;15.01;76.12;100230.59;5016351;28;20332;-63
2021/08/28 05:10:04;;;;;;;;;;;;;;;15.01;76.17;100239.28;5014967;28;19944;-63
2021/08/28 05:12:51;;;;;;;;;;;;;;;15.01;76.14;100233.22;5015029;28;19928;-63
2021/08/28 05:15:39;;;;;;;;;;;;;;;15.01;76.14;100235.81;5015224;28;20419;-63
2021/08/28 05:18:25;;;;;;;;;;;;;;;15.00;76.14;100232.31;5014692;28;20361;-63
2021/08/28 05:21:09;;;;;;;;;;;;;;;15.01;76.21;100230.59;5016405;28;19929;-63
2021/08/28 05:23:59;;;;;;;;;;;;;;;15.00;76.14;100234.94;5015920;28;19944;-63
2021/08/28 05:26:46;;;;;;;;;;;;;;;15.01;76.27;100233.22;5014741;28;19928;-63
2021/08/28 05:29:30;;;;;;;;;;;;;;;15.01;76.08;100231.47;5015753;28;19927;-63
2021/08/28 05:32:17;;;;;;;;;;;;;;;15.02;76.31;100229.75;5016064;28;19929;-61
2021/08/28 05:35:01;;;;;;;;;;;;;;;15.01;76.24;100226.25;5014561;28;19927;-62
2021/08/28 05:37:47;;;;;;;;;;;;;;;15.01;76.34;100231.47;5016247;28;19928;-61
2021/08/28 05:40:37;;;;;;;;;;;;;;;15.02;76.43;100235.81;5028702;28;20465;-62
2021/08/28 05:43:24;;;;;;;;;;;;;;;15.02;76.41;100237.56;5015031;28;19948;-61
2021/08/28 05:46:08;;;;;;;;;;;;;;;15.01;76.46;100239.28;5015615;28;19927;-61
2021/08/28 05:48:52;;;;;;;;;;;;;;;15.02;76.52;100234.97;5014788;28;19928;-62
2021/08/28 05:51:36;;;;;;;;;;;;;;;15.02;76.37;100242.78;5014433;28;19931;-61
2021/08/28 05:54:20;;;;;;;;;;;;;;;15.03;76.45;100234.94;5015252;28;19944;-62
2021/08/28 05:57:04;;;;;;;;;;;;;;;15.02;76.61;100234.97;5015470;28;19928;-61
2021/08/28 05:59:51;;;;;;;;;;;;;;;15.03;76.61;100237.56;5028600;28;19928;-62
2021/08/28 06:02:35;;;;;;;;;;;;;;;15.04;76.58;100238.41;5015197;28;19959;-63
2021/08/28 06:05:22;;;;;;;;;;;;;;;15.02;76.49;100233.22;5015274;28;19983;-63
2021/08/28 06:08:06;;;;;;;;;;;;;;;15.05;76.55;100245.38;5015528;28;19933;-63
2021/08/28 06:10:50;;;;;;;;;;;;;;;15.04;76.72;100241.91;5015151;28;20399;-63
2021/08/28 06:13:34;;;;;;;;;;;;;;;15.05;76.63;100243.66;5015254;28;20015;-63
2021/08/28 06:16:20;;;;;;;;;;;;;;;15.05;76.59;100250.59;5015073;28;19929;-63
2021/08/28 06:19:05;;;;;;;;;;;;;;;15.05;76.73;100253.22;5014786;28;20407;-63
2021/08/28 06:21:52;;;;;;;;;;;;;;;15.05;76.75;100251.47;5014846;28;19975;-64
2021/08/28 06:24:38;;;;;;;;;;;;;;;15.07;76.67;100246.25;5014162;28;19976;-63
2021/08/28 06:27:22;;;;;;;;;;;;;;;15.06;76.71;100253.22;5014180;28;19927;-63
2021/08/28 06:30:06;;;;;;;;;;;;;;;15.08;76.83;100248.00;5014236;28;20028;-63
2021/08/28 06:32:50;;;;;;;;;;;;;;;15.07;76.73;100256.69;5015010;28;19976;-63
2021/08/28 06:35:34;;;;;;;;;;;;;;;15.08;76.89;100250.59;5014532;28;19928;-63
2021/08/28 06:38:18;;;;;;;;;;;;;;;15.06;76.79;100248.00;5014062;28;20011;-63
2021/08/28 06:41:05;;;;;;;;;;;;;;;15.09;76.79;100251.50;5014999;28;19929;-63
2021/08/28 06:43:49;;;;;;;;;;;;;;;15.07;76.96;100247.13;5014611;28;19991;-62
2021/08/28 06:46:33;;;;;;;;;;;;;;;15.09;76.73;100254.09;5014159;28;19929;-63
2021/08/28 06:49:17;;;;;;;;;;;;;;;15.09;76.78;100257.56;5013599;28;20430;-63
2021/08/28 06:52:01;;;;;;;;;;;;;;;15.09;76.82;100265.41;5014430;28;20032;-63
2021/08/28 06:54:45;;;;;;;;;;;;;;;15.11;76.81;100262.78;5014193;28;19952;-62
2021/08/28 06:57:32;;;;;;;;;;;;;;;15.09;77.00;100257.56;5013555;28;19928;-62
2021/08/28 07:00:16;;;;;;;;;;;;;;;15.10;76.91;100259.31;5014223;28;19933;-62
2021/08/28 07:02:59;;;;;;;;;;;;;;;15.11;76.84;100252.34;5013969;28;19932;-62
2021/08/28 07:05:46;;;;;;;;;;;;;;;15.10;77.04;100254.09;5014273;28;20428;-63
2021/08/28 07:08:33;;;;;;;;;;;;;;;15.11;77.04;100254.94;5013353;28;19928;-64
2021/08/28 07:11:16;;;;;;;;;;;;;;;15.10;77.07;100251.47;5013238;28;19948;-63
2021/08/28 07:14:02;;;;;;;;;;;;;;;15.11;77.07;100252.34;5013569;28;21225;-61
2021/08/28 07:16:46;;;;;;;;;;;;;;;15.12;77.19;100254.06;5014065;28;20056;-61
2021/08/28 07:19:30;;;;;;;;;;;;;;;15.12;77.20;100254.97;5014028;28;19944;-62
2021/08/28 07:22:16;;;;;;;;;;;;;;;15.13;77.16;100253.22;5014255;28;20068;-61
2021/08/28 07:25:00;;;;;;;;;;;;;;;15.13;77.10;100259.31;5013357;28;19968;-62
2021/08/28 07:27:44;;;;;;;;;;;;;;;15.12;77.18;100254.06;5013889;28;20013;-61
2021/08/28 07:30:31;;;;;;;;;;;;;;;15.14;77.31;100257.56;5013747;28;19929;-61
2021/08/28 07:33:15;;;;;;;;;;;;;;;15.14;77.30;100253.22;5013828;28;19943;-61
2021/08/28 07:36:00;;;;;;;;;;;;;;;15.14;77.35;100255.84;5014341;28;19929;-61
2021/08/28 07:38:49;;;;;;;;;;;;;;;15.15;77.08;100257.59;5013125;28;20056;-61
2021/08/28 07:41:33;;;;;;;;;;;;;;;15.15;77.25;100260.19;5012471;28;19944;-61
2021/08/28 07:44:23;;;;;;;;;;;;;;;15.16;77.31;100261.94;5012487;28;19928;-62
2021/08/28 07:47:09;;;;;;;;;;;;;;;15.17;77.28;100268.00;5013649;28;19928;-62
2021/08/28 07:49:53;;;;;;;;;;;;;;;15.17;77.27;100262.78;5012974;28;19928;-61
2021/08/28 07:52:42;;;;;;;;;;;;;;;15.17;77.30;100266.28;5012855;28;19932;-61
2021/08/28 07:55:32;;;;;;;;;;;;;;;15.16;77.37;100267.16;5012679;28;19963;-62
2021/08/28 07:58:16;;;;;;;;;;;;;;;15.17;77.17;100263.69;5012867;28;19948;-61
2021/08/28 08:01:00;;;;;;;;;;;;;;;15.17;77.37;100258.47;5013722;28;19928;-61
2021/08/28 08:03:43;;;;;;;;;;;;;;;15.17;77.27;100262.78;5013076;28;19968;-64
2021/08/28 08:06:33;;;;;;;;;;;;;;;15.17;77.19;100258.47;5027282;28;19960;-62
2021/08/28 08:09:17;;;;;;;;;;;;;;;15.18;77.19;100273.22;5013070;28;19928;-61
2021/08/28 08:12:07;;;;;;;;;;;;;;;15.19;77.16;100263.66;5013645;28;20016;-62
2021/08/28 08:14:51;;;;;;;;;;;;;;;15.19;77.14;100269.75;5015887;28;20450;-61
2021/08/28 08:17:35;;;;;;;;;;;;;;;15.19;77.23;100259.31;5017342;28;20079;-61
2021/08/28 08:20:22;;;;;;;;;;;;;;;15.19;77.11;100261.06;5017480;28;19928;-62
2021/08/28 08:23:06;;;;;;;;;;;;;;;15.20;77.23;100261.03;5017058;28;20024;-62
2021/08/28 08:25:50;;;;;;;;;;;;;;;15.21;77.25;100260.19;5015754;28;19975;-62
2021/08/28 08:28:36;;;;;;;;;;;;;;;15.21;77.22;100264.53;5016558;28;19968;-62
2021/08/28 08:31:21;;;;;;;;;;;;;;;15.21;77.40;100260.19;5016446;28;19927;-61
2021/08/28 08:34:07;;;;;;;;;;;;;;;15.21;77.25;100268.00;5016899;28;20281;-62
2021/08/28 08:36:54;;;;;;;;;;;;;;;15.21;77.21;100257.56;5016006;28;19972;-62
2021/08/28 08:39:38;;;;;;;;;;;;;;;15.21;77.44;100265.41;5015999;28;20396;-62
2021/08/28 08:42:22;;;;;;;;;;;;;;;15.22;77.40;100266.28;5016881;28;19929;-62
2021/08/28 08:45:07;;;;;;;;;;;;;;;15.19;77.45;100261.91;5017037;28;19987;-62
2021/08/28 08:47:54;;;;;;;;;;;;;;;15.21;77.67;100262.78;5016499;28;20304;-63
2021/08/28 08:50:38;;;;;;;;;;;;;;;15.22;77.55;100274.13;5015659;28;19971;-63
2021/08/28 08:53:33;;;;;;;;;;;;;;;15.22;77.42;100274.13;5016680;28;19963;-63
2021/08/28 08:56:20;;;;;;;;;;;;;;;15.21;77.36;100273.22;5016334;28;19929;-63
2021/08/28 08:59:05;;;;;;;;;;;;;;;15.22;77.28;100271.50;5016881;28;19928;-72
2021/08/28 09:01:48;;;;;;;;;;;;;;;15.23;77.29;100268.88;5015529;28;19963;-63
2021/08/28 09:04:35;;;;;;;;;;;;;;;15.25;77.43;100278.47;5015277;28;19974;-63
2021/08/28 09:07:20;;;;;;;;;;;;;;;15.25;77.50;100283.69;5016116;28;19924;-63
2021/08/28 09:10:04;;;;;;;;;;;;;;;15.24;77.50;100282.81;5015970;28;20439;-63
2021/08/28 09:12:51;;;;;;;;;;;;;;;15.25;77.44;100281.06;5016094;28;19928;-63
2021/08/28 09:15:48;;;;;;;;;;;;;;;15.25;77.39;100278.47;5015941;28;20015;-63
2021/08/28 09:18:52;;;;;;;;;;;;;;;15.25;77.52;100281.06;5015414;28;19928;-63
2021/08/28 09:21:36;;;;;;;;;;;;;;;15.25;77.60;100289.78;5029022;28;19975;-63
2021/08/28 09:24:20;;;;;;;;;;;;;;;15.25;77.37;100291.50;5015832;28;20364;-63
2021/08/28 09:27:07;;;;;;;;;;;;;;;15.24;77.40;100285.44;5015509;28;19968;-62
2021/08/28 09:29:57;;;;;;;;;;;;;;;15.24;77.48;100285.44;5015882;28;19983;-63
2021/08/28 09:32:45;;;;;;;;;;;;;;;15.23;77.12;100283.69;5014805;28;19937;-65
2021/08/28 09:35:36;;;;;;;;;;;;;;;15.24;77.47;100285.44;5016087;28;19956;-64
2021/08/28 09:38:24;;;;;;;;;;;;;;;15.26;77.37;100282.81;5014891;28;20408;-61
2021/08/28 09:41:11;;;;;;;;;;;;;;;15.25;77.41;100281.97;5016064;28;20344;-61
2021/08/28 09:44:05;;;;;;;;;;;;;;;15.27;77.27;100295.00;5014451;28;19929;-62
2021/08/28 09:47:06;;;;;;;;;;;;;;;15.26;77.26;100281.06;5014541;28;19971;-62
2021/08/28 09:49:51;;;;;;;;;;;;;;;15.26;77.30;100282.81;5014233;28;20452;-64
2021/08/28 09:52:35;;;;;;;;;;;;;;;15.27;77.37;100284.56;5015784;28;19928;-63
2021/08/28 09:55:22;;;;;;;;;;;;;;;15.27;77.35;100281.94;5015246;28;20047;-63
2021/08/28 09:58:07;;;;;;;;;;;;;;;15.27;77.16;100280.19;5014680;28;19968;-63
2021/08/28 10:00:51;;;;;;;;;;;;;;;15.28;77.22;100276.72;5014841;28;19931;-63
2021/08/28 10:03:35;;;;;;;;;;;;;;;15.29;77.20;100272.38;5014053;28;19928;-63
2021/08/28 10:06:19;;;;;;;;;;;;;;;15.29;77.30;100275.00;5014946;28;19928;-63
2021/08/28 10:09:09;;;;;;;;;;;;;;;15.31;77.22;100278.47;5015475;28;19984;-63
2021/08/28 10:12:02;;;;;;;;;;;;;;;15.32;77.35;100282.84;5013961;28;20015;-63
2021/08/28 10:14:47;;;;;;;;;;;;;;;15.33;77.23;100287.19;5013943;28;19932;-63
2021/08/28 10:17:34;;;;;;;;;;;;;;;15.32;77.19;100278.47;5014562;28;19975;-63
2021/08/28 10:20:19;;;;;;;;;;;;;;;15.32;77.23;100272.38;5014134;28;19928;-63
2021/08/28 10:23:04;;;;;;;;;;;;;;;15.32;77.35;100273.25;5013844;28;19928;-63
2021/08/28 10:25:50;;;;;;;;;;;;;;;15.33;77.19;100275.00;5014865;28;19928;-62
2021/08/28 10:28:36;;;;;;;;;;;;;;;15.33;77.25;100275.00;5013835;28;20451;-61
2021/08/28 10:31:20;;;;;;;;;;;;;;;15.34;77.07;100271.50;5014465;28;19928;-63
2021/08/28 10:34:04;;;;;;;;;;;;;;;15.34;77.23;100268.91;5015035;28;19929;-62
2021/08/28 10:36:51;;;;;;;;;;;;;;;15.35;77.08;100267.13;5014109;28;20285;-62
2021/08/28 10:39:36;;;;;;;;;;;;;;;15.36;77.19;100264.56;5027426;28;19927;-62
2021/08/28 10:42:30;;;;;;;;;;;;;;;15.37;77.00;100270.63;5027589;28;19996;-61
2021/08/28 10:45:15;;;;;;;;;;;;;;;15.38;77.14;100269.75;5013738;28;19968;-61
2021/08/28 10:48:06;;;;;;;;;;;;;;;15.40;76.95;100265.41;5014653;28;20324;-61
2021/08/28 10:50:53;;;;;;;;;;;;;;;15.41;77.07;100255.84;5014571;28;19928;-61
2021/08/28 10:53:46;;;;;;;;;;;;;;;15.42;77.06;100258.44;5013440;28;20285;-61
2021/08/28 10:56:42;;;;;;;;;;;;;;;15.44;77.05;100267.16;5013774;28;19929;-62
2021/08/28 10:59:43;;;;;;;;;;;;;;;15.45;76.87;100276.75;5014409;28;19936;-62
2021/08/28 11:03:03;;;;;;;;;;;;;;;15.46;76.77;100273.25;5014327;28;20424;-61
2021/08/28 11:06:06;;;;;;;;;;;;;;;15.46;76.89;100278.47;4992674;28;19929;-62
2021/08/28 11:08:54;;;;;;;;;;;;;;;15.46;76.91;100280.19;5013077;28;19936;-62
2021/08/28 11:11:44;;;;;;;;;;;;;;;15.46;77.16;100274.97;5013181;28;19975;-62
2021/08/28 11:14:49;;;;;;;;;;;;;;;15.45;77.08;100276.75;5014159;28;19975;-64
2021/08/28 11:17:51;;;;;;;;;;;;;;;15.45;77.13;100274.13;5013037;28;19952;-63
2021/08/28 11:20:39;;;;;;;;;;;;;;;15.45;77.09;100276.75;5013210;28;19928;-64
2021/08/28 11:23:28;;;;;;;;;;;;;;;15.45;76.93;100274.13;5013262;28;19960;-63
2021/08/28 11:26:34;;;;;;;;;;;;;;;15.46;77.09;100272.38;5013393;28;19929;-63
2021/08/28 11:29:28;;;;;;;;;;;;;;;15.45;76.97;100279.34;5013751;28;19967;-63
2021/08/28 11:32:17;;;;;;;;;;;;;;;15.45;76.94;100278.47;5013407;28;19972;-63
2021/08/28 11:35:05;;;;;;;;;;;;;;;15.45;77.02;100283.69;5013163;28;19928;-63
2021/08/28 11:38:02;;;;;;;;;;;;;;;15.44;77.05;100276.72;5013353;28;19928;-63
2021/08/28 11:40:57;;;;;;;;;;;;;;;15.45;77.08;100278.47;5013536;28;19931;-63
2021/08/28 11:43:44;;;;;;;;;;;;;;;15.46;77.06;100274.97;5013460;28;19927;-63
2021/08/28 11:46:31;;;;;;;;;;;;;;;15.46;77.05;100274.97;5012811;28;20019;-63
2021/08/28 11:49:20;;;;;;;;;;;;;;;15.47;76.78;100274.09;5030619;28;20434;-63
2021/08/28 11:52:11;;;;;;;;;;;;;;;15.47;76.92;100271.50;5016610;28;19945;-63
2021/08/28 11:55:00;;;;;;;;;;;;;;;15.48;76.99;100271.50;5017052;28;19932;-63
2021/08/28 11:57:58;;;;;;;;;;;;;;;15.50;76.97;100274.13;5016404;28;19928;-63
2021/08/28 12:00:47;;;;;;;;;;;;;;;15.50;76.74;100277.59;5017792;28;20276;-62
2021/08/28 12:03:31;;;;;;;;;;;;;;;15.54;76.69;100268.03;5016418;28;19972;-63
2021/08/28 12:06:18;;;;;;;;;;;;;;;15.55;76.73;100274.09;5017277;28;19928;-63
2021/08/28 12:09:09;;;;;;;;;;;;;;;15.57;76.84;100261.91;5016419;28;20072;-63
2021/08/28 12:11:57;;;;;;;;;;;;;;;15.58;76.73;100277.56;5016464;28;19928;-63
2021/08/28 12:14:44;;;;;;;;;;;;;;;15.59;76.85;100263.66;5016622;28;19930;-63
2021/08/28 12:17:32;;;;;;;;;;;;;;;15.62;76.82;100265.41;5016953;28;19968;-63
2021/08/28 12:20:26;;;;;;;;;;;;;;;15.63;76.88;100248.84;5016028;28;19928;-63
2021/08/28 12:23:10;;;;;;;;;;;;;;;15.65;76.88;100255.81;5016499;28;19932;-63
2021/08/28 12:25:59;;;;;;;;;;;;;;;15.67;76.80;100255.78;5017235;28;19971;-63
2021/08/28 12:28:43;;;;;;;;;;;;;;;15.66;76.66;100257.56;5016430;28;19928;-63
2021/08/28 12:31:33;;;;;;;;;;;;;;;15.67;76.79;100264.53;5016573;28;19967;-63
2021/08/28 12:34:23;;;;;;;;;;;;;;;15.68;76.76;100261.03;5016336;28;19975;-63
2021/08/28 12:37:14;;;;;;;;;;;;;;;15.70;76.70;100261.03;5016803;28;19928;-62
2021/08/28 12:39:59;;;;;;;;;;;;;;;15.69;76.77;100272.34;5016866;28;19929;-62
2021/08/28 12:42:47;;;;;;;;;;;;;;;15.69;76.46;100277.56;5015890;28;19928;-62
2021/08/28 12:45:32;;;;;;;;;;;;;;;15.68;76.55;100262.75;5015709;28;19976;-61
2021/08/28 12:48:16;;;;;;;;;;;;;;;15.68;76.71;100263.66;5016648;28;19928;-62
2021/08/28 12:51:07;;;;;;;;;;;;;;;15.68;76.43;100271.50;5016389;28;19928;-63
2021/08/28 12:53:54;;;;;;;;;;;;;;;15.67;76.43;100269.75;5016959;28;19948;-62
2021/08/28 12:56:46;;;;;;;;;;;;;;;15.67;76.49;100263.63;5016065;28;19948;-61
2021/08/28 12:59:34;;;;;;;;;;;;;;;15.66;76.62;100252.34;5014846;28;19987;-62
2021/08/28 13:02:21;;;;;;;;;;;;;;;15.69;76.62;100254.06;5015285;28;20044;-62
2021/08/28 13:05:05;;;;;;;;;;;;;;;15.69;76.50;100256.66;5015565;28;20019;-62
2021/08/28 13:07:52;;;;;;;;;;;;;;;15.69;76.47;100251.44;5016696;28;19976;-63
2021/08/28 13:10:39;;;;;;;;;;;;;;;15.71;76.38;100251.47;5015034;28;20363;-62
2021/08/28 13:13:23;;;;;;;;;;;;;;;15.70;76.33;100247.97;5016606;28;19928;-62
2021/08/28 13:16:21;;;;;;;;;;;;;;;15.72;76.39;100250.59;5015261;28;20320;-61
2021/08/28 13:19:14;;;;;;;;;;;;;;;15.72;76.38;100247.97;5015482;28;19972;-62
2021/08/28 13:22:00;;;;;;;;;;;;;;;15.73;76.13;100247.06;5015078;28;19960;-62
2021/08/28 13:24:51;;;;;;;;;;;;;;;15.75;76.33;100248.84;5015943;28;19975;-62
2021/08/28 13:27:46;;;;;;;;;;;;;;;15.76;76.27;100245.34;5014715;28;20296;-62
2021/08/28 13:30:34;;;;;;;;;;;;;;;15.78;76.22;100238.38;5014733;28;19970;-63
2021/08/28 13:33:25;;;;;;;;;;;;;;;15.79;76.19;100236.63;5015140;28;20384;-62
2021/08/28 13:36:09;;;;;;;;;;;;;;;15.79;76.29;100255.81;5014547;28;20335;-62
2021/08/28 13:38:56;;;;;;;;;;;;;;;15.79;76.33;100247.97;5016143;28;19975;-64
2021/08/28 13:41:45;;;;;;;;;;;;;;;15.80;76.25;100254.91;5015614;28;20016;-62
2021/08/28 13:44:35;;;;;;;;;;;;;;;15.82;75.99;100249.69;5015502;28;19928;-62
2021/08/28 13:47:25;;;;;;;;;;;;;;;15.81;76.15;100253.16;5015507;28;20002;-62
2021/08/28 13:50:15;;;;;;;;;;;;;;;15.81;76.02;100246.19;5028964;28;19975;-62
2021/08/28 13:53:04;;;;;;;;;;;;;;;15.83;76.14;100244.44;5028615;28;19929;-62
2021/08/28 13:55:53;;;;;;;;;;;;;;;15.85;75.88;100244.50;5014216;28;19928;-62
2021/08/28 13:58:40;;;;;;;;;;;;;;;15.85;76.06;100265.41;5014762;28;19976;-61
2021/08/28 14:01:24;;;;;;;;;;;;;;;15.87;75.82;100278.44;5014647;28;19929;-62
2021/08/28 14:04:08;;;;;;;;;;;;;;;15.88;75.84;100282.81;5015128;28;19928;-63
2021/08/28 14:06:52;;;;;;;;;;;;;;;15.84;75.81;100277.53;5014153;28;19943;-62
2021/08/28 14:09:39;;;;;;;;;;;;;;;15.84;76.07;100280.16;5014428;28;20446;-63
2021/08/28 14:12:23;;;;;;;;;;;;;;;15.83;76.05;100278.41;5014034;28;19928;-63
2021/08/28 14:15:11;;;;;;;;;;;;;;;15.83;76.15;100286.25;5015364;28;19928;-63
2021/08/28 14:17:58;;;;;;;;;;;;;;;15.80;76.08;100275.81;5014613;28;19976;-62